sensor_id;sensor_type;location;lat;lon;timestamp;pressure;altitude;pressure_sealevel;temperature;humidity
36222;BME280;22266;52.340;4.962;2022-12-07T00:01:21;101836.03;;;5.96;79.92
36222;BME280;22266;52.340;4.962;2022-12-07T00:03:49;101838.72;;;5.96;80.09
36222;BME280;22266;52.340;4.962;2022-12-07T00:06:16;101830.81;;;5.94;79.61
36222;BME280;22266;52.340;4.962;2022-12-07T00:08:44;101835.31;;;5.93;80.23
36222;BME280;22266;52.340;4.962;2022-12-07T00:11:14;101826.56;;;5.91;79.55
36222;BME280;22266;52.340;4.962;2022-12-07T00:13:42;101828.69;;;5.88;80.12
36222;BME280;22266;52.340;4.962;2022-12-07T00:16:11;101828.38;;;5.81;79.76
36222;BME280;22266;52.340;4.962;2022-12-07T00:18:38;101825.56;;;5.83;80.26
36222;BME280;22266;52.340;4.962;2022-12-07T00:21:25;101821.78;;;5.85;80.13
36222;BME280;22266;52.340;4.962;2022-12-07T00:23:53;101818.09;;;5.86;79.88
36222;BME280;22266;52.340;4.962;2022-12-07T00:26:28;101817.84;;;5.89;79.50
36222;BME280;22266;52.340;4.962;2022-12-07T00:29:02;101813.22;;;5.91;79.45
36222;BME280;22266;52.340;4.962;2022-12-07T00:31:32;101818.44;;;5.93;79.70
36222;BME280;22266;52.340;4.962;2022-12-07T00:34:01;101809.59;;;5.92;79.22
36222;BME280;22266;52.340;4.962;2022-12-07T00:36:27;101817.69;;;5.91;78.67
36222;BME280;22266;52.340;4.962;2022-12-07T00:38:57;101813.22;;;5.91;78.92
36222;BME280;22266;52.340;4.962;2022-12-07T00:41:25;101802.91;;;5.87;79.40
36222;BME280;22266;52.340;4.962;2022-12-07T00:43:52;101802.91;;;5.87;79.16
36222;BME280;22266;52.340;4.962;2022-12-07T00:46:19;101804.91;;;5.85;78.59
36222;BME280;22266;52.340;4.962;2022-12-07T00:48:47;101798.16;;;5.81;79.20
36222;BME280;22266;52.340;4.962;2022-12-07T00:51:16;101803.50;;;5.81;79.29
36222;BME280;22266;52.340;4.962;2022-12-07T00:53:43;101800.09;;;5.79;79.35
36222;BME280;22266;52.340;4.962;2022-12-07T00:56:19;101797.31;;;5.80;79.07
36222;BME280;22266;52.340;4.962;2022-12-07T00:58:59;101793.66;;;5.81;78.70
36222;BME280;22266;52.340;4.962;2022-12-07T01:01:30;101781.28;;;5.80;79.22
36222;BME280;22266;52.340;4.962;2022-12-07T01:03:57;101793.50;;;5.83;79.42
36222;BME280;22266;52.340;4.962;2022-12-07T01:06:24;101793.50;;;5.83;78.83
36222;BME280;22266;52.340;4.962;2022-12-07T01:08:52;101799.00;;;5.81;78.78
36222;BME280;22266;52.340;4.962;2022-12-07T01:11:21;101800.94;;;5.79;79.31
36222;BME280;22266;52.340;4.962;2022-12-07T01:13:53;101806.44;;;5.78;78.95
36222;BME280;22266;52.340;4.962;2022-12-07T01:16:21;101811.09;;;5.76;78.79
36222;BME280;22266;52.340;4.962;2022-12-07T01:18:50;101817.53;;;5.73;78.89
36222;BME280;22266;52.340;4.962;2022-12-07T01:21:20;101815.72;;;5.64;78.50
36222;BME280;22266;52.340;4.962;2022-12-07T01:23:48;101823.41;;;5.57;78.77
36222;BME280;22266;52.340;4.962;2022-12-07T01:26:17;101821.31;;;5.61;78.96
36222;BME280;22266;52.340;4.962;2022-12-07T01:28:44;101818.06;;;5.67;79.45
36222;BME280;22266;52.340;4.962;2022-12-07T01:31:17;101812.47;;;5.70;79.45
36222;BME280;22266;52.340;4.962;2022-12-07T01:33:46;101807.53;;;5.75;79.08
36222;BME280;22266;52.340;4.962;2022-12-07T01:36:19;101803.34;;;5.82;79.76
36222;BME280;22266;52.340;4.962;2022-12-07T01:38:47;101803.06;;;5.85;79.17
36222;BME280;22266;52.340;4.962;2022-12-07T01:41:16;101800.13;;;5.88;79.35
36222;BME280;22266;52.340;4.962;2022-12-07T01:44:18;101804.31;;;5.91;79.18
36222;BME280;22266;52.340;4.962;2022-12-07T01:46:56;101801.56;;;5.92;78.58
36222;BME280;22266;52.340;4.962;2022-12-07T01:51:58;101808.00;;;5.90;78.67
36222;BME280;22266;52.340;4.962;2022-12-07T01:54:27;101813.34;;;5.90;78.74
36222;BME280;22266;52.340;4.962;2022-12-07T01:56:55;101810.81;;;5.88;78.94
36222;BME280;22266;52.340;4.962;2022-12-07T01:59:24;101807.41;;;5.86;78.84
36222;BME280;22266;52.340;4.962;2022-12-07T02:01:54;101791.81;;;5.82;78.57
36222;BME280;22266;52.340;4.962;2022-12-07T02:04:21;101791.25;;;5.78;78.94
36222;BME280;22266;52.340;4.962;2022-12-07T02:06:49;101798.56;;;5.76;79.01
36222;BME280;22266;52.340;4.962;2022-12-07T02:09:16;101790.00;;;5.73;78.51
36222;BME280;22266;52.340;4.962;2022-12-07T02:11:43;101789.41;;;5.69;79.04
36222;BME280;22266;52.340;4.962;2022-12-07T02:14:09;101781.56;;;5.67;78.96
36222;BME280;22266;52.340;4.962;2022-12-07T02:17:01;101793.34;;;5.65;78.60
36222;BME280;22266;52.340;4.962;2022-12-07T02:30:40;101776.59;;;5.53;79.51
36222;BME280;22266;52.340;4.962;2022-12-07T02:33:24;101772.81;;;5.56;79.64
36222;BME280;22266;52.340;4.962;2022-12-07T02:36:15;101775.34;;;5.57;79.52
36222;BME280;22266;52.340;4.962;2022-12-07T02:38:50;101767.34;;;5.57;79.34
36222;BME280;22266;52.340;4.962;2022-12-07T02:41:44;101774.50;;;5.57;79.45
36222;BME280;22266;52.340;4.962;2022-12-07T02:44:17;101767.47;;;5.56;79.29
36222;BME280;22266;52.340;4.962;2022-12-07T02:46:50;101771.97;;;5.55;79.90
36222;BME280;22266;52.340;4.962;2022-12-07T02:49:22;101765.78;;;5.55;79.42
36222;BME280;22266;52.340;4.962;2022-12-07T02:51:49;101762.41;;;5.53;79.33
36222;BME280;22266;52.340;4.962;2022-12-07T02:54:19;101763.41;;;5.52;79.40
36222;BME280;22266;52.340;4.962;2022-12-07T02:56:52;101764.50;;;5.49;79.78
36222;BME280;22266;52.340;4.962;2022-12-07T03:08:06;101772.22;;;5.33;79.39
36222;BME280;22266;52.340;4.962;2022-12-07T03:10:56;101789.22;;;5.32;79.70
36222;BME280;22266;52.340;4.962;2022-12-07T03:13:54;101786.13;;;5.27;79.13
36222;BME280;22266;52.340;4.962;2022-12-07T03:16:30;101791.84;;;5.22;79.17
36222;BME280;22266;52.340;4.962;2022-12-07T03:19:11;101788.91;;;5.25;79.98
36222;BME280;22266;52.340;4.962;2022-12-07T03:21:44;101789.91;;;5.24;80.02
36222;BME280;22266;52.340;4.962;2022-12-07T03:24:15;101784.00;;;5.30;79.74
36222;BME280;22266;52.340;4.962;2022-12-07T03:26:49;101785.28;;;5.36;80.01
36222;BME280;22266;52.340;4.962;2022-12-07T03:29:22;101769.97;;;5.38;80.19
36222;BME280;22266;52.340;4.962;2022-12-07T03:31:56;101777.56;;;5.42;79.69
36222;BME280;22266;52.340;4.962;2022-12-07T03:34:34;101767.44;;;5.46;79.92
36222;BME280;22266;52.340;4.962;2022-12-07T03:37:10;101772.09;;;5.44;80.01
36222;BME280;22266;52.340;4.962;2022-12-07T03:39:45;101758.03;;;5.42;79.27
36222;BME280;22266;52.340;4.962;2022-12-07T03:42:15;101758.19;;;5.40;79.88
36222;BME280;22266;52.340;4.962;2022-12-07T03:44:42;101759.28;;;5.38;79.88
36222;BME280;22266;52.340;4.962;2022-12-07T03:47:24;101754.25;;;5.35;79.74
36222;BME280;22266;52.340;4.962;2022-12-07T03:49:58;101751.84;;;5.32;79.69
36222;BME280;22266;52.340;4.962;2022-12-07T03:52:33;101753.09;;;5.28;79.67
36222;BME280;22266;52.340;4.962;2022-12-07T03:57:54;101768.81;;;5.21;79.52
36222;BME280;22266;52.340;4.962;2022-12-07T04:00:22;101772.88;;;5.15;79.63
36222;BME280;22266;52.340;4.962;2022-12-07T04:02:52;101775.81;;;5.12;79.85
36222;BME280;22266;52.340;4.962;2022-12-07T04:05:19;101765.81;;;5.14;80.40
36222;BME280;22266;52.340;4.962;2022-12-07T04:07:45;101757.28;;;5.11;79.71
36222;BME280;22266;52.340;4.962;2022-12-07T04:10:12;101758.81;;;5.13;79.84
36222;BME280;22266;52.340;4.962;2022-12-07T04:12:39;101757.69;;;5.16;79.75
36222;BME280;22266;52.340;4.962;2022-12-07T04:15:06;101745.19;;;5.16;79.88
36222;BME280;22266;52.340;4.962;2022-12-07T04:17:32;101747.59;;;5.19;80.21
36222;BME280;22266;52.340;4.962;2022-12-07T04:19:59;101742.13;;;5.21;79.96
36222;BME280;22266;52.340;4.962;2022-12-07T04:22:26;101742.97;;;5.21;79.88
36222;BME280;22266;52.340;4.962;2022-12-07T04:24:52;101742.13;;;5.21;79.52
36222;BME280;22266;52.340;4.962;2022-12-07T04:27:19;101751.94;;;5.20;79.92
36222;BME280;22266;52.340;4.962;2022-12-07T04:29:45;101752.78;;;5.21;79.44
36222;BME280;22266;52.340;4.962;2022-12-07T04:32:12;101749.28;;;5.20;79.49
36222;BME280;22266;52.340;4.962;2022-12-07T04:34:38;101751.13;;;5.20;79.25
36222;BME280;22266;52.340;4.962;2022-12-07T04:37:05;101747.88;;;5.16;79.48
36222;BME280;22266;52.340;4.962;2022-12-07T04:39:33;101756.72;;;5.17;79.54
36222;BME280;22266;52.340;4.962;2022-12-07T04:42:00;101748.72;;;5.17;79.19
36222;BME280;22266;52.340;4.962;2022-12-07T04:44:27;101740.84;;;5.15;79.85
36222;BME280;22266;52.340;4.962;2022-12-07T04:46:54;101743.53;;;5.15;79.26
36222;BME280;22266;52.340;4.962;2022-12-07T04:49:21;101739.03;;;5.16;79.48
36222;BME280;22266;52.340;4.962;2022-12-07T04:51:48;101743.78;;;5.12;79.36
36222;BME280;22266;52.340;4.962;2022-12-07T04:54:16;101741.13;;;5.12;79.07
36222;BME280;22266;52.340;4.962;2022-12-07T04:56:45;101735.94;;;5.11;79.67
36222;BME280;22266;52.340;4.962;2022-12-07T04:59:13;101736.19;;;5.08;79.34
36222;BME280;22266;52.340;4.962;2022-12-07T05:01:40;101740.81;;;5.06;79.47
36222;BME280;22266;52.340;4.962;2022-12-07T05:04:07;101727.47;;;5.06;79.50
36222;BME280;22266;52.340;4.962;2022-12-07T05:06:34;101738.03;;;5.07;79.57
36222;BME280;22266;52.340;4.962;2022-12-07T05:09:02;101737.72;;;5.10;79.93
36222;BME280;22266;52.340;4.962;2022-12-07T05:11:28;101727.63;;;5.14;80.15
36222;BME280;22266;52.340;4.962;2022-12-07T05:14:19;101720.19;;;5.17;79.63
36222;BME280;22266;52.340;4.962;2022-12-07T05:16:48;101727.09;;;5.20;79.19
36222;BME280;22266;52.340;4.962;2022-12-07T05:19:15;101728.66;;;5.23;79.08
36222;BME280;22266;52.340;4.962;2022-12-07T05:21:42;101730.19;;;5.25;78.55
36222;BME280;22266;52.340;4.962;2022-12-07T05:24:10;101735.53;;;5.25;78.70
36222;BME280;22266;52.340;4.962;2022-12-07T05:26:37;101737.34;;;5.25;78.67
36222;BME280;22266;52.340;4.962;2022-12-07T05:29:04;101741.28;;;5.20;78.30
36222;BME280;22266;52.340;4.962;2022-12-07T05:31:31;101731.69;;;5.18;77.93
36222;BME280;22266;52.340;4.962;2022-12-07T05:33:57;101735.38;;;5.17;78.32
36222;BME280;22266;52.340;4.962;2022-12-07T05:36:24;101733.69;;;5.16;78.53
36222;BME280;22266;52.340;4.962;2022-12-07T05:38:51;101725.78;;;5.14;77.71
36222;BME280;22266;52.340;4.962;2022-12-07T05:41:18;101729.44;;;5.13;77.59
36222;BME280;22266;52.340;4.962;2022-12-07T05:44:04;101725.53;;;5.17;77.90
36222;BME280;22266;52.340;4.962;2022-12-07T05:46:30;101722.59;;;5.20;77.89
36222;BME280;22266;52.340;4.962;2022-12-07T05:48:57;101722.31;;;5.24;78.02
36222;BME280;22266;52.340;4.962;2022-12-07T05:51:23;101721.34;;;5.25;77.71
36222;BME280;22266;52.340;4.962;2022-12-07T05:53:50;101724.84;;;5.25;77.71
36222;BME280;22266;52.340;4.962;2022-12-07T05:56:16;101731.88;;;5.26;77.36
36222;BME280;22266;52.340;4.962;2022-12-07T05:58:43;101726.53;;;5.26;77.42
36222;BME280;22266;52.340;4.962;2022-12-07T06:01:28;101724.56;;;5.28;77.77
36222;BME280;22266;52.340;4.962;2022-12-07T06:03:54;101714.75;;;5.29;77.51
36222;BME280;22266;52.340;4.962;2022-12-07T06:06:21;101710.50;;;5.26;77.05
36222;BME280;22266;52.340;4.962;2022-12-07T06:08:47;101718.34;;;5.18;77.28
36222;BME280;22266;52.340;4.962;2022-12-07T06:11:14;101714.84;;;5.17;77.50
36222;BME280;22266;52.340;4.962;2022-12-07T06:13:59;101729.88;;;5.18;78.00
36222;BME280;22266;52.340;4.962;2022-12-07T06:16:25;101733.53;;;5.17;77.99
36222;BME280;22266;52.340;4.962;2022-12-07T06:18:52;101733.28;;;5.20;77.86
36222;BME280;22266;52.340;4.962;2022-12-07T06:21:18;101746.31;;;5.14;76.94
36222;BME280;22266;52.340;4.962;2022-12-07T06:23:45;101750.22;;;5.10;77.65
36222;BME280;22266;52.340;4.962;2022-12-07T06:26:11;101736.19;;;5.08;77.59
36222;BME280;22266;52.340;4.962;2022-12-07T06:28:38;101735.06;;;5.10;78.25
36222;BME280;22266;52.340;4.962;2022-12-07T06:31:04;101721.44;;;5.13;77.82
36222;BME280;22266;52.340;4.962;2022-12-07T06:33:38;101717.41;;;5.19;78.17
36222;BME280;22266;52.340;4.962;2022-12-07T06:36:05;101704.75;;;5.21;78.13
36222;BME280;22266;52.340;4.962;2022-12-07T06:38:31;101713.59;;;5.21;77.95
36222;BME280;22266;52.340;4.962;2022-12-07T06:40:58;101714.44;;;5.22;77.52
36222;BME280;22266;52.340;4.962;2022-12-07T06:43:24;101715.16;;;5.24;77.87
36222;BME280;22266;52.340;4.962;2022-12-07T06:45:51;101723.84;;;5.26;77.75
36222;BME280;22266;52.340;4.962;2022-12-07T06:48:17;101729.19;;;5.26;77.79
36222;BME280;22266;52.340;4.962;2022-12-07T06:50:45;101724.72;;;5.27;77.46
36222;BME280;22266;52.340;4.962;2022-12-07T06:53:19;101731.88;;;5.26;77.33
36222;BME280;22266;52.340;4.962;2022-12-07T06:55:45;101730.34;;;5.24;77.00
36222;BME280;22266;52.340;4.962;2022-12-07T06:58:12;101728.78;;;5.21;77.86
36222;BME280;22266;52.340;4.962;2022-12-07T07:00:38;101729.03;;;5.18;77.91
36222;BME280;22266;52.340;4.962;2022-12-07T07:03:05;101729.34;;;5.15;77.70
36222;BME280;22266;52.340;4.962;2022-12-07T07:05:31;101720.75;;;5.11;77.58
36222;BME280;22266;52.340;4.962;2022-12-07T07:07:57;101721.84;;;5.09;77.95
36222;BME280;22266;52.340;4.962;2022-12-07T07:10:44;101729.19;;;5.07;77.93
36222;BME280;22266;52.340;4.962;2022-12-07T07:13:10;101722.44;;;5.03;77.79
36222;BME280;22266;52.340;4.962;2022-12-07T07:15:38;101728.72;;;5.02;78.02
36222;BME280;22266;52.340;4.962;2022-12-07T07:18:05;101728.13;;;4.98;78.09
36222;BME280;22266;52.340;4.962;2022-12-07T07:20:33;101734.47;;;4.97;78.28
36222;BME280;22266;52.340;4.962;2022-12-07T07:23:00;101731.09;;;4.95;77.93
36222;BME280;22266;52.340;4.962;2022-12-07T07:25:26;101729.53;;;4.92;78.33
36222;BME280;22266;52.340;4.962;2022-12-07T07:27:52;101734.19;;;4.90;78.14
36222;BME280;22266;52.340;4.962;2022-12-07T07:30:19;101736.84;;;4.90;78.51
36222;BME280;22266;52.340;4.962;2022-12-07T07:32:45;101735.28;;;4.88;78.12
36222;BME280;22266;52.340;4.962;2022-12-07T07:35:12;101738.22;;;4.85;78.17
36222;BME280;22266;52.340;4.962;2022-12-07T07:37:40;101761.78;;;4.80;78.15
36222;BME280;22266;52.340;4.962;2022-12-07T07:40:08;101765.44;;;4.79;78.51
36222;BME280;22266;52.340;4.962;2022-12-07T07:42:35;101766.97;;;4.81;79.10
36222;BME280;22266;52.340;4.962;2022-12-07T07:45:01;101770.13;;;4.86;78.97
36222;BME280;22266;52.340;4.962;2022-12-07T07:47:28;101769.81;;;4.89;79.10
36222;BME280;22266;52.340;4.962;2022-12-07T07:49:55;101746.66;;;4.90;78.96
36222;BME280;22266;52.340;4.962;2022-12-07T07:52:21;101749.63;;;4.96;79.07
36222;BME280;22266;52.340;4.962;2022-12-07T07:54:48;101745.97;;;4.97;79.02
36222;BME280;22266;52.340;4.962;2022-12-07T07:57:16;101744.03;;;5.00;78.40
36222;BME280;22266;52.340;4.962;2022-12-07T07:59:42;101745.88;;;4.99;78.84
36222;BME280;22266;52.340;4.962;2022-12-07T08:02:14;101749.78;;;5.05;78.66
36222;BME280;22266;52.340;4.962;2022-12-07T08:04:41;101746.72;;;5.09;79.23
36222;BME280;22266;52.340;4.962;2022-12-07T08:07:07;101757.97;;;5.13;78.98
36222;BME280;22266;52.340;4.962;2022-12-07T08:09:34;101757.81;;;5.14;78.96
36222;BME280;22266;52.340;4.962;2022-12-07T08:12:00;101759.94;;;5.11;78.57
36222;BME280;22266;52.340;4.962;2022-12-07T08:14:27;101769.63;;;5.12;78.61
36222;BME280;22266;52.340;4.962;2022-12-07T08:16:54;101770.06;;;5.17;78.83
36222;BME280;22266;52.340;4.962;2022-12-07T08:19:21;101781.47;;;5.19;78.62
36222;BME280;22266;52.340;4.962;2022-12-07T08:21:47;101768.97;;;5.29;79.35
36222;BME280;22266;52.340;4.962;2022-12-07T08:24:14;101768.84;;;5.31;79.28
36222;BME280;22266;52.340;4.962;2022-12-07T08:26:41;101749.47;;;5.48;80.63
36222;BME280;22266;52.340;4.962;2022-12-07T08:29:08;101760.56;;;5.43;79.36
36222;BME280;22266;52.340;4.962;2022-12-07T08:31:34;101764.50;;;5.39;79.26
36222;BME280;22266;52.340;4.962;2022-12-07T08:34:01;101760.84;;;5.40;79.09
36222;BME280;22266;52.340;4.962;2022-12-07T08:36:28;101757.34;;;5.40;78.78
36222;BME280;22266;52.340;4.962;2022-12-07T08:38:54;101752.84;;;5.40;79.17
36222;BME280;22266;52.340;4.962;2022-12-07T08:41:41;101762.41;;;5.43;78.66
36222;BME280;22266;52.340;4.962;2022-12-07T08:44:07;101754.53;;;5.41;78.93
36222;BME280;22266;52.340;4.962;2022-12-07T08:46:40;101761.69;;;5.41;79.00
36222;BME280;22266;52.340;4.962;2022-12-07T08:49:12;101767.75;;;5.43;78.64
36222;BME280;22266;52.340;4.962;2022-12-07T08:51:40;101754.25;;;5.44;78.93
36222;BME280;22266;52.340;4.962;2022-12-07T08:54:14;101751.16;;;5.49;79.12
36222;BME280;22266;52.340;4.962;2022-12-07T08:56:43;101751.16;;;5.49;78.83
36222;BME280;22266;52.340;4.962;2022-12-07T08:59:14;101755.38;;;5.52;79.18
36222;BME280;22266;52.340;4.962;2022-12-07T09:01:42;101742.72;;;5.54;79.20
36222;BME280;22266;52.340;4.962;2022-12-07T09:04:09;101746.25;;;5.54;78.99
36222;BME280;22266;52.340;4.962;2022-12-07T09:06:35;101745.97;;;5.57;78.89
36222;BME280;22266;52.340;4.962;2022-12-07T09:09:03;101746.97;;;5.56;78.74
36222;BME280;22266;52.340;4.962;2022-12-07T09:11:30;101747.78;;;5.57;78.89
36222;BME280;22266;52.340;4.962;2022-12-07T09:13:56;101744.28;;;5.56;78.29
36222;BME280;22266;52.340;4.962;2022-12-07T09:16:23;101737.94;;;5.57;78.84
36222;BME280;22266;52.340;4.962;2022-12-07T09:18:49;101749.47;;;5.58;78.96
36222;BME280;22266;52.340;4.962;2022-12-07T09:21:16;101745.81;;;5.59;78.40
36222;BME280;22266;52.340;4.962;2022-12-07T09:23:42;101746.53;;;5.61;79.05
36222;BME280;22266;52.340;4.962;2022-12-07T09:26:10;101746.09;;;5.65;78.58
36222;BME280;22266;52.340;4.962;2022-12-07T09:28:37;101738.50;;;5.70;78.70
36222;BME280;22266;52.340;4.962;2022-12-07T09:31:04;101742.47;;;5.76;78.59
36222;BME280;22266;52.340;4.962;2022-12-07T09:34:08;101743.03;;;5.80;78.41
36222;BME280;22266;52.340;4.962;2022-12-07T09:36:35;101743.56;;;5.83;77.79
36222;BME280;22266;52.340;4.962;2022-12-07T09:39:02;101740.91;;;5.83;78.10
36222;BME280;22266;52.340;4.962;2022-12-07T09:41:31;101738.94;;;5.85;78.20
36222;BME280;22266;52.340;4.962;2022-12-07T09:44:04;101742.88;;;5.91;77.71
36222;BME280;22266;52.340;4.962;2022-12-07T09:46:35;101743.19;;;5.98;77.91
36222;BME280;22266;52.340;4.962;2022-12-07T09:49:03;101747.66;;;6.07;78.05
36222;BME280;22266;52.340;4.962;2022-12-07T09:51:30;101737.94;;;6.15;77.88
36222;BME280;22266;52.340;4.962;2022-12-07T09:53:58;101747.09;;;6.23;77.91
36222;BME280;22266;52.340;4.962;2022-12-07T09:56:25;101736.66;;;6.19;77.29
36222;BME280;22266;52.340;4.962;2022-12-07T09:58:59;101738.50;;;6.19;77.45
36222;BME280;22266;52.340;4.962;2022-12-07T10:01:31;101735.84;;;6.19;77.42
36222;BME280;22266;52.340;4.962;2022-12-07T10:04:06;101738.50;;;6.19;76.49
36222;BME280;22266;52.340;4.962;2022-12-07T10:06:35;101739.06;;;6.23;76.81
36222;BME280;22266;52.340;4.962;2022-12-07T10:09:07;101737.94;;;6.25;77.25
36222;BME280;22266;52.340;4.962;2022-12-07T10:11:34;101743.13;;;6.27;76.61
36222;BME280;22266;52.340;4.962;2022-12-07T10:14:12;101731.75;;;6.25;76.70
36222;BME280;22266;52.340;4.962;2022-12-07T10:16:41;101731.88;;;6.23;76.83
36222;BME280;22266;52.340;4.962;2022-12-07T10:19:25;101734.16;;;6.18;76.53
36222;BME280;22266;52.340;4.962;2022-12-07T10:24:35;101724.06;;;6.12;76.87
36222;BME280;22266;52.340;4.962;2022-12-07T10:27:20;101725.84;;;6.11;77.07
36222;BME280;22266;52.340;4.962;2022-12-07T10:29:51;101715.47;;;6.08;76.89
36222;BME280;22266;52.340;4.962;2022-12-07T10:34:45;101714.00;;;6.24;78.43
36222;BME280;22266;52.340;4.962;2022-12-07T10:37:27;101710.78;;;6.30;77.65
36222;BME280;22266;52.340;4.962;2022-12-07T10:39:56;101709.22;;;6.27;77.82
36222;BME280;22266;52.340;4.962;2022-12-07T10:42:28;101713.03;;;6.25;77.34
36222;BME280;22266;52.340;4.962;2022-12-07T10:45:15;101706.69;;;6.26;77.42
36222;BME280;22266;52.340;4.962;2022-12-07T10:47:55;101699.69;;;6.25;77.30
36222;BME280;22266;52.340;4.962;2022-12-07T10:53:26;101700.22;;;6.28;77.02
36222;BME280;22266;52.340;4.962;2022-12-07T10:59:16;101696.28;;;6.32;76.89
36222;BME280;22266;52.340;4.962;2022-12-07T11:04:59;101686.66;;;6.39;76.69
36222;BME280;22266;52.340;4.962;2022-12-07T11:07:46;101686.38;;;6.42;76.67
36222;BME280;22266;52.340;4.962;2022-12-07T11:10:28;101678.75;;;6.48;76.44
36222;BME280;22266;52.340;4.962;2022-12-07T11:15:50;101678.72;;;6.57;75.98
36222;BME280;22266;52.340;4.962;2022-12-07T11:18:27;101678.28;;;6.62;76.55
36222;BME280;22266;52.340;4.962;2022-12-07T11:21:22;101667.97;;;6.67;75.78
36222;BME280;22266;52.340;4.962;2022-12-07T11:24:14;101658.25;;;6.66;76.12
36222;BME280;22266;52.340;4.962;2022-12-07T11:29:49;101657.22;;;6.77;75.61
36222;BME280;22266;52.340;4.962;2022-12-07T11:35:24;101649.72;;;6.80;75.84
36222;BME280;22266;52.340;4.962;2022-12-07T11:38:00;101637.22;;;6.81;75.10
36222;BME280;22266;52.340;4.962;2022-12-07T11:40:34;101637.22;;;6.81;75.43
36222;BME280;22266;52.340;4.962;2022-12-07T11:43:22;101635.31;;;7.09;77.60
36222;BME280;22266;52.340;4.962;2022-12-07T11:46:02;101637.63;;;7.22;75.67
36222;BME280;22266;52.340;4.962;2022-12-07T11:48:41;101631.44;;;7.21;75.40
36222;BME280;22266;52.340;4.962;2022-12-07T11:51:10;101623.91;;;7.25;75.14
36222;BME280;22266;52.340;4.962;2022-12-07T11:53:42;101639.00;;;7.26;74.74
36222;BME280;22266;52.340;4.962;2022-12-07T11:56:16;101643.59;;;7.15;74.00
36222;BME280;22266;52.340;4.962;2022-12-07T11:59:08;101653.00;;;7.02;73.77
36222;BME280;22266;52.340;4.962;2022-12-07T12:04:22;101633.56;;;6.72;74.83
36222;BME280;22266;52.340;4.962;2022-12-07T12:06:49;101631.34;;;6.67;74.25
36222;BME280;22266;52.340;4.962;2022-12-07T12:09:26;101625.25;;;6.75;74.70
36222;BME280;22266;52.340;4.962;2022-12-07T12:20:51;101609.59;;;6.80;73.91
36222;BME280;22266;52.340;4.962;2022-12-07T12:25:55;101592.78;;;6.88;73.61
36222;BME280;22266;52.340;4.962;2022-12-07T12:31:17;101599.59;;;7.00;73.50
36222;BME280;22266;52.340;4.962;2022-12-07T12:34:00;101596.78;;;7.02;72.53
36222;BME280;22266;52.340;4.962;2022-12-07T12:39:14;101592.81;;;7.06;70.77
36222;BME280;22266;52.340;4.962;2022-12-07T12:46:55;101584.59;;;7.07;69.81
36222;BME280;22266;52.340;4.962;2022-12-07T12:51:55;101586.81;;;6.94;69.50
36222;BME280;22266;52.340;4.962;2022-12-07T12:54:24;101594.31;;;6.90;70.14
36222;BME280;22266;52.340;4.962;2022-12-07T12:57:18;101580.00;;;6.82;69.93
36222;BME280;22266;52.340;4.962;2022-12-07T13:02:21;101580.06;;;6.72;70.06
36222;BME280;22266;52.340;4.962;2022-12-07T13:04:53;101585.75;;;6.69;70.77
36222;BME280;22266;52.340;4.962;2022-12-07T13:18:38;101561.03;;;6.75;70.50
36222;BME280;22266;52.340;4.962;2022-12-07T13:29:19;101543.38;;;6.82;71.00
36222;BME280;22266;52.340;4.962;2022-12-07T13:31:51;101535.06;;;6.85;71.21
36222;BME280;22266;52.340;4.962;2022-12-07T13:37:02;101522.34;;;6.87;72.10
36222;BME280;22266;52.340;4.962;2022-12-07T13:39:33;101520.84;;;6.85;71.22
36222;BME280;22266;52.340;4.962;2022-12-07T13:42:11;101520.84;;;6.85;71.22
36222;BME280;22266;52.340;4.962;2022-12-07T13:44:41;101519.84;;;6.86;71.24
36222;BME280;22266;52.340;4.962;2022-12-07T13:47:19;101525.03;;;6.87;71.67
36222;BME280;22266;52.340;4.962;2022-12-07T13:49:50;101523.06;;;6.89;71.38
36222;BME280;22266;52.340;4.962;2022-12-07T13:52:25;101519.84;;;6.86;71.20
36222;BME280;22266;52.340;4.962;2022-12-07T13:55:05;101513.97;;;6.82;71.27
36222;BME280;22266;52.340;4.962;2022-12-07T13:57:40;101511.13;;;6.84;71.96
36222;BME280;22266;52.340;4.962;2022-12-07T14:00:16;101500.28;;;6.85;71.35
36222;BME280;22266;52.340;4.962;2022-12-07T14:03:02;101503.78;;;6.86;71.30
36222;BME280;22266;52.340;4.962;2022-12-07T14:05:30;101500.94;;;6.87;71.65
36222;BME280;22266;52.340;4.962;2022-12-07T14:12:57;101513.97;;;6.82;70.48
36222;BME280;22266;52.340;4.962;2022-12-07T14:15:28;101509.13;;;6.68;71.03
36222;BME280;22266;52.340;4.962;2022-12-07T14:17:56;101505.69;;;6.58;71.00
36222;BME280;22266;52.340;4.962;2022-12-07T14:20:37;101507.00;;;6.54;71.33
36222;BME280;22266;52.340;4.962;2022-12-07T14:23:05;101513.34;;;6.53;71.11
36222;BME280;22266;52.340;4.962;2022-12-07T14:25:48;101502.94;;;6.50;71.62
36222;BME280;22266;52.340;4.962;2022-12-07T14:28:49;101498.41;;;6.50;71.81
36222;BME280;22266;52.340;4.962;2022-12-07T14:31:21;101497.13;;;6.54;71.70
36222;BME280;22266;52.340;4.962;2022-12-07T14:33:59;101493.31;;;6.57;72.12
36222;BME280;22266;52.340;4.962;2022-12-07T14:36:25;101492.31;;;6.58;71.96
36222;BME280;22266;52.340;4.962;2022-12-07T14:38:52;101496.53;;;6.60;72.00
36222;BME280;22266;52.340;4.962;2022-12-07T14:41:22;101491.84;;;6.62;72.68
36222;BME280;22266;52.340;4.962;2022-12-07T14:44:13;101482.00;;;6.63;72.51
36222;BME280;22266;52.340;4.962;2022-12-07T14:46:52;101491.78;;;6.72;73.26
36222;BME280;22266;52.340;4.962;2022-12-07T14:49:39;101492.47;;;6.74;72.83
36222;BME280;22266;52.340;4.962;2022-12-07T14:52:15;101480.63;;;6.77;72.78
36222;BME280;22266;52.340;4.962;2022-12-07T14:55:02;101485.44;;;6.73;72.85
36222;BME280;22266;52.340;4.962;2022-12-07T14:57:29;101491.78;;;6.72;72.77
36222;BME280;22266;52.340;4.962;2022-12-07T14:59:56;101488.59;;;6.68;72.49
36222;BME280;22266;52.340;4.962;2022-12-07T15:02:22;101481.41;;;6.69;72.39
36222;BME280;22266;52.340;4.962;2022-12-07T15:04:48;101476.81;;;6.61;72.30
36222;BME280;22266;52.340;4.962;2022-12-07T15:07:20;101477.56;;;6.54;71.69